Cooper, Iowa
Current Conditions -  °F | °C
As of 3:15 AM on Thursday 23 Oct 2014 (Local Time) from KPRO Reporting Station
Overcast Overcast  
Wind Chill: 53°   Ceiling: 9500
Heat Index: 53°   Visibility: 10mi
Dew Point: 52°   Wind: 8mph
Humidity: 95%   Direction: 170°S
Pressure: 30.06"   Gusts: NA
Location:  41.92°N, 94.35°W
Report Text: KPRO 230815Z AUTO 17007KT 10SM SCT033 OVC095 12/11 A3006 RMK AO2 T01180110
Loading
Personal Weather Stations






























Interactive Weather Map New forecast layout! Learn more

10-Day Weather Forecast

Advertisements
Track Severe Weather on mobile